Observations for AUCKLAND INTL A, New Zealand (NZAA)

NZAA 252200Z AUTO 34015KT 9999 BKN038/// 19/12 Q1012 NOSIG  
NZAA 252130Z AUTO 36012G25KT 9999 FEW033/// 18/13 Q1012 NOSIG   
NZAA 252100Z AUTO 01014KT 9999 NCD 18/13 Q1012 NOSIG
NZAA 252030Z AUTO 02014KT 9999 NCD 17/13 Q1012 NOSIG
NZAA 252000Z AUTO 01012KT 9999 NCD 16/13 Q1012 NOSIG
NZAA 251930Z AUTO 01009KT 9999 NCD 16/13 Q1012 NOSIG
NZAA 251900Z AUTO 04010KT 9999 NCD 15/13 Q1012 NOSIG
NZAA 251830Z AUTO 04011KT 9999 SCT100/// 15/13 Q1012 NOSIG  
NZAA 251800Z AUTO 03008KT 9999 FEW100/// 15/13 Q1013 NOSIG  
NZAA 251730Z AUTO 36010KT 9999 NCD 15/13 Q1014 NOSIG
NZAA 251700Z AUTO 01014KT 9999 NCD 15/13 Q1013 NOSIG
NZAA 251630Z AUTO 36012KT 9999 NCD 15/13 Q1013 NOSIG
NZAA 251600Z AUTO 01014KT 9999 NCD 15/13 Q1013 NOSIG
NZAA 251530Z AUTO 02013KT 9999 NCD 15/13 Q1012 NOSIG
NZAA 251500Z AUTO 02010KT 9999 -RA SCT095/// 15/13 Q1013 NOSIG  
NZAA 251430Z AUTO 01010KT 9999 BKN100/// 16/13 Q1013 NOSIG  
NZAA 251400Z AUTO 34010KT 9999 FEW022/// 16/13 Q1015 NOSIG  
NZAA 251330Z AUTO 33010KT 9999 NCD 16/13 Q1015 NOSIG
NZAA 251300Z AUTO 32011KT 9999 NCD 16/13 Q1015 NOSIG
NZAA 251230Z AUTO 31010KT 280V340 9999 NCD 16/13 Q1016 NOSIG
NZAA 251200Z AUTO 31009KT 280V340 9999 FEW018/// 16/13 Q1016 NOSIG  
NZAA 251130Z AUTO 31008KT 280V340 9999 SCT020/// 16/13 Q1016 NOSIG  
NZAA 251100Z AUTO 32011KT 290V350 9999 FEW018/// 16/13 Q1016 NOSIG  
NZAA 251030Z AUTO 32011KT 280V350 9999 SCT019/// 16/13 Q1016 NOSIG  
NZAA 251000Z AUTO 32009KT 290V350 9999 BKN018/// 16/13 Q1017 NOSIG  
NZAA 250930Z AUTO 31014KT 9999 BKN017/// 16/13 Q1017 NOSIG  
NZAA 250900Z AUTO 30009KT 270V330 9999 BKN018/// 16/13 Q1017 NOSIG  
NZAA 250830Z AUTO 29010KT 9999 SCT019/// 16/13 Q1017 NOSIG  
NZAA 250800Z AUTO 30010KT 260V330 9999 FEW018/// 16/13 Q1017 NOSIG  
NZAA 250730Z AUTO 30012KT 250V330 9999 FEW018/// 16/13 Q1016 NOSIG  
NZAA 250700Z AUTO 31014KT 9999 SCT018/// 16/13 Q1016 NOSIG  
NZAA 250630Z AUTO 30012KT 270V330 9999 BKN020/// 16/13 Q1016 NOSIG  
NZAA 250600Z AUTO 29012KT 9999 OVC020/// 16/13 Q1016 NOSIG  
NZAA 250530Z AUTO 29015KT 9999 OVC019/// 16/13 Q1017 NOSIG  
NZAA 250500Z AUTO 29017KT 9999 OVC019/// 17/13 Q1017 NOSIG  
NZAA 250430Z AUTO 28018KT 9999 OVC024/// 17/13 Q1017 NOSIG  
NZAA 250400Z AUTO 29016KT 260V320 9999 BKN025/// 17/13 Q1017 NOSIG  
NZAA 250330Z AUTO 29015KT 260V330 9999 OVC026/// 18/13 Q1016 NOSIG  
NZAA 250300Z AUTO 30016KT 9999 OVC030/// 17/13 Q1016 NOSIG  
NZAA 250230Z AUTO 29013KT 9999 BKN028/// OVC033/// 18/12 Q1017 NOSIG
NZAA 250200Z AUTO 30012KT 260V340 9999 BKN028/// 18/12 Q1017 NOSIG  
NZAA 250130Z AUTO 30013KT 9999 BKN030/// 18/12 Q1017 NOSIG  
NZAA 250100Z AUTO 28017KT 9999 BKN028/// OVC033/// 18/12 Q1018 NOSIG
NZAA 250030Z AUTO 29013KT 9999 OVC032/// 18/12 Q1018 NOSIG  
NZAA 250000Z AUTO 29015KT 9999 OVC032/// 18/11 Q1018 NOSIG  
NZAA 242330Z AUTO 30013KT 270V330 9999 SCT028/// OVC033/// 18/11 Q1018 NOSIG
NZAA 242300Z AUTO 30014KT 9999 BKN031/// 17/11 Q1019 NOSIG  
NZAA 242230Z AUTO 30013KT 270V340 9999 OVC031/// 17/11 Q1019 NOSIG  
NZAA 242200Z AUTO 31013KT 280V340 9999 OVC028/// 17/11 Q1019 NOSIG  
NZAA 242130Z AUTO 30011KT 260V340 9999 OVC030/// 16/11 Q1019 NOSIG